Time;durP1;ratioP1;P1;durP2;ratioP2;P2;SDS_P1;SDS_P2;PMS_P1;PMS_P2;Temp;Humidity;BMP_temperature;BMP_pressure;BME280_temperature;BME280_humidity;BME280_pressure;Samples;Min_cycle;Max_cycle;Signal;HPM_P1;HPM_P2
2020/12/24 00:01:12;;;;;;;240.15;128.45;;;;;;;;;;5073064;28;20032;-53
2020/12/24 00:03:38;;;;;;;211.68;115.32;;;;;;;;;;5061528;28;20031;-53
2020/12/24 00:06:04;;;;;;;222.85;117.65;;;;;;;;;;5055519;28;20096;-56
2020/12/24 00:08:30;;;;;;;193.80;106.07;;;;;;;;;;5052572;28;20429;-54
2020/12/24 00:10:56;;;;;;;173.70;98.47;;;;;;;;;;5063226;28;20744;-55
2020/12/24 00:13:22;;;;;;;172.68;96.43;;;;;;;;;;5065662;28;20439;-54
2020/12/24 00:15:48;;;;;;;169.63;98.45;;;;;;;;;;5053667;28;20050;-53
2020/12/24 00:18:14;;;;;;;176.52;96.55;;;;;;;;;;5054313;28;20053;-52
2020/12/24 00:20:40;;;;;;;188.15;103.25;;;;;;;;;;5054010;28;20021;-55
2020/12/24 00:23:06;;;;;;;173.35;97.10;;;;;;;;;;5073663;28;20032;-56
2020/12/24 00:25:32;;;;;;;164.48;90.78;;;;;;;;;;5072402;28;20041;-54
2020/12/24 00:27:58;;;;;;;160.60;87.90;;;;;;;;;;5070147;28;20078;-53
2020/12/24 00:30:24;;;;;;;163.45;92.18;;;;;;;;;;5061339;28;20218;-54
2020/12/24 00:32:50;;;;;;;157.70;89.80;;;;;;;;;;5056631;28;20048;-54
2020/12/24 00:35:17;;;;;;;206.82;113.28;;;;;;;;;;5062280;28;20387;-54
2020/12/24 00:37:43;;;;;;;202.73;112.57;;;;;;;;;;5069063;28;20098;-53
2020/12/24 00:40:09;;;;;;;193.40;104.13;;;;;;;;;;5072414;28;20032;-54
2020/12/24 00:42:35;;;;;;;170.35;94.80;;;;;;;;;;5064777;28;20484;-54
2020/12/24 00:45:01;;;;;;;178.25;95.88;;;;;;;;;;5052108;28;20040;-53
2020/12/24 00:47:27;;;;;;;160.95;89.85;;;;;;;;;;5069053;28;20158;-52
2020/12/24 00:49:54;;;;;;;169.82;93.82;;;;;;;;;;5054447;28;20021;-51
2020/12/24 00:52:20;;;;;;;180.52;98.72;;;;;;;;;;5055740;28;21514;-53
2020/12/24 00:54:46;;;;;;;173.73;93.90;;;;;;;;;;5060654;28;20483;-53
2020/12/24 00:57:12;;;;;;;170.10;95.57;;;;;;;;;;5069562;28;20051;-54
2020/12/24 00:59:38;;;;;;;169.90;92.75;;;;;;;;;;5062595;28;20053;-55
2020/12/24 01:02:04;;;;;;;158.13;88.50;;;;;;;;;;5061930;28;20067;-52
2020/12/24 01:04:30;;;;;;;150.80;85.55;;;;;;;;;;5054817;28;20046;-53
2020/12/24 01:06:56;;;;;;;141.75;80.22;;;;;;;;;;5058983;28;20483;-51
2020/12/24 01:09:22;;;;;;;148.75;80.82;;;;;;;;;;5063875;28;20035;-55
2020/12/24 01:11:48;;;;;;;141.63;77.40;;;;;;;;;;5076683;28;20034;-52
2020/12/24 01:14:14;;;;;;;148.30;83.13;;;;;;;;;;5060435;28;20037;-54
2020/12/24 01:16:41;;;;;;;206.35;105.57;;;;;;;;;;5068358;28;20028;-54
2020/12/24 01:19:07;;;;;;;174.02;93.55;;;;;;;;;;5074724;28;20873;-52
2020/12/24 01:21:33;;;;;;;155.88;85.80;;;;;;;;;;5055515;28;20112;-52
2020/12/24 01:23:59;;;;;;;171.52;89.45;;;;;;;;;;5062339;28;20041;-53
2020/12/24 01:26:25;;;;;;;153.82;81.50;;;;;;;;;;5058490;28;20093;-55
2020/12/24 01:28:51;;;;;;;139.48;74.13;;;;;;;;;;5046788;28;20108;-52
2020/12/24 01:31:17;;;;;;;144.38;77.70;;;;;;;;;;5054675;28;20033;-53
2020/12/24 01:33:43;;;;;;;145.20;78.60;;;;;;;;;;5076399;28;20020;-53
2020/12/24 01:36:09;;;;;;;132.93;76.03;;;;;;;;;;5082597;28;20031;-55
2020/12/24 01:38:35;;;;;;;148.98;81.60;;;;;;;;;;5081414;28;20062;-56
2020/12/24 01:41:02;;;;;;;156.70;82.82;;;;;;;;;;5057616;28;20036;-54
2020/12/24 01:43:29;;;;;;;194.27;91.00;;;;;;;;;;5073149;28;20028;-55
2020/12/24 01:45:56;;;;;;;171.35;84.72;;;;;;;;;;5062314;28;20021;-53
2020/12/24 01:48:22;;;;;;;217.85;99.38;;;;;;;;;;5067345;28;20052;-52
2020/12/24 01:50:48;;;;;;;186.45;89.10;;;;;;;;;;5067920;28;20468;-55
2020/12/24 01:53:19;;;;;;;179.48;89.55;;;;;;;;;;5079451;28;20044;-54
2020/12/24 01:55:45;;;;;;;127.93;70.32;;;;;;;;;;5075639;28;20585;-54
2020/12/24 01:58:11;;;;;;;138.48;74.53;;;;;;;;;;5075633;28;20472;-54
2020/12/24 02:00:37;;;;;;;131.10;71.93;;;;;;;;;;5075553;28;20479;-55
2020/12/24 02:03:03;;;;;;;132.52;68.47;;;;;;;;;;5075456;28;20396;-55
2020/12/24 02:05:29;;;;;;;126.22;69.18;;;;;;;;;;5075666;28;20460;-56
2020/12/24 02:07:55;;;;;;;120.43;66.63;;;;;;;;;;5081739;28;20035;-55
2020/12/24 02:10:22;;;;;;;116.30;65.15;;;;;;;;;;5075487;28;20028;-54
2020/12/24 02:12:48;;;;;;;119.00;66.90;;;;;;;;;;5075460;28;20150;-55
2020/12/24 02:15:14;;;;;;;116.47;62.30;;;;;;;;;;5075359;28;20555;-55
2020/12/24 02:17:40;;;;;;;118.35;65.05;;;;;;;;;;5073594;28;20087;-55
2020/12/24 02:20:06;;;;;;;116.00;62.88;;;;;;;;;;5074953;28;20062;-56
2020/12/24 02:22:32;;;;;;;113.55;62.10;;;;;;;;;;5074811;28;20584;-54
2020/12/24 02:24:58;;;;;;;124.93;67.15;;;;;;;;;;5056370;28;20510;-54
2020/12/24 02:27:24;;;;;;;124.60;68.75;;;;;;;;;;5074576;28;20064;-54
2020/12/24 02:29:50;;;;;;;110.82;63.08;;;;;;;;;;5070003;28;20388;-54
2020/12/24 02:32:16;;;;;;;117.72;62.33;;;;;;;;;;5063582;28;20028;-56
2020/12/24 02:34:42;;;;;;;146.02;77.18;;;;;;;;;;5058516;28;20023;-54
2020/12/24 02:37:10;;;;;;;128.75;68.15;;;;;;;;;;5054794;28;20468;-54
2020/12/24 02:39:36;;;;;;;112.70;60.47;;;;;;;;;;5056356;28;20048;-53
2020/12/24 02:42:02;;;;;;;110.97;59.45;;;;;;;;;;5071046;28;20116;-55
2020/12/24 02:44:28;;;;;;;115.43;61.35;;;;;;;;;;5060508;28;20488;-57
2020/12/24 02:46:54;;;;;;;111.85;60.58;;;;;;;;;;5053765;28;20032;-53
2020/12/24 02:49:20;;;;;;;113.60;62.67;;;;;;;;;;5056268;28;20024;-53
2020/12/24 02:51:46;;;;;;;126.38;69.68;;;;;;;;;;5060910;28;20023;-55
2020/12/24 02:54:12;;;;;;;122.32;66.95;;;;;;;;;;5061183;28;20112;-55
2020/12/24 02:56:38;;;;;;;133.50;70.40;;;;;;;;;;5054786;28;20029;-53
2020/12/24 02:59:04;;;;;;;151.68;83.85;;;;;;;;;;5038807;28;20396;-53
2020/12/24 03:01:31;;;;;;;139.25;75.05;;;;;;;;;;5059018;28;20039;-52
2020/12/24 03:03:57;;;;;;;133.95;68.75;;;;;;;;;;5057984;28;20032;-54
2020/12/24 03:06:23;;;;;;;133.27;68.97;;;;;;;;;;5055537;28;20017;-54
2020/12/24 03:08:50;;;;;;;129.00;66.60;;;;;;;;;;5056179;28;20078;-53
2020/12/24 03:11:16;;;;;;;132.40;71.93;;;;;;;;;;5054992;28;20024;-52
2020/12/24 03:13:42;;;;;;;126.47;68.68;;;;;;;;;;5057232;28;20078;-52
2020/12/24 03:16:08;;;;;;;129.32;70.70;;;;;;;;;;5057524;28;20056;-52
2020/12/24 03:18:34;;;;;;;155.10;82.68;;;;;;;;;;5065477;28;20499;-53
2020/12/24 03:21:00;;;;;;;159.70;88.90;;;;;;;;;;5053742;28;20503;-54
2020/12/24 03:23:26;;;;;;;157.20;86.07;;;;;;;;;;5060247;28;20476;-53
2020/12/24 03:25:52;;;;;;;143.75;76.60;;;;;;;;;;5059810;28;20066;-55
2020/12/24 03:28:18;;;;;;;136.27;71.03;;;;;;;;;;5054116;28;20029;-54
2020/12/24 03:30:45;;;;;;;122.45;66.63;;;;;;;;;;5062993;28;20024;-54
2020/12/24 03:33:11;;;;;;;122.78;63.95;;;;;;;;;;5074100;28;20043;-55
2020/12/24 03:35:37;;;;;;;117.82;62.50;;;;;;;;;;5074025;28;20028;-55
2020/12/24 03:38:03;;;;;;;124.65;68.57;;;;;;;;;;5073725;28;20460;-55
2020/12/24 03:40:29;;;;;;;125.85;67.93;;;;;;;;;;5073876;28;20035;-55
2020/12/24 03:42:55;;;;;;;128.27;68.35;;;;;;;;;;5073707;28;20063;-55
2020/12/24 03:45:21;;;;;;;132.35;69.28;;;;;;;;;;5073852;28;20024;-55
2020/12/24 03:47:47;;;;;;;142.75;76.93;;;;;;;;;;5073632;28;20107;-54
2020/12/24 03:50:13;;;;;;;188.57;102.28;;;;;;;;;;5073821;28;20495;-55
2020/12/24 03:52:39;;;;;;;154.85;81.68;;;;;;;;;;5075216;28;20036;-54
2020/12/24 03:55:05;;;;;;;140.52;78.28;;;;;;;;;;5073683;28;20031;-54
2020/12/24 03:57:31;;;;;;;131.60;71.45;;;;;;;;;;5072876;28;20029;-55
2020/12/24 03:59:57;;;;;;;123.85;65.97;;;;;;;;;;5073615;28;20074;-56
2020/12/24 04:02:23;;;;;;;131.45;69.35;;;;;;;;;;5073314;28;20094;-55
2020/12/24 04:04:49;;;;;;;134.77;71.30;;;;;;;;;;5073458;28;20028;-55
2020/12/24 04:07:15;;;;;;;138.98;77.32;;;;;;;;;;5077092;28;20030;-55
2020/12/24 04:09:41;;;;;;;143.43;77.65;;;;;;;;;;5074638;28;20096;-54
2020/12/24 04:12:07;;;;;;;147.88;79.30;;;;;;;;;;5075153;28;20029;-56
2020/12/24 04:14:33;;;;;;;154.15;84.85;;;;;;;;;;5073169;28;20086;-54
2020/12/24 04:16:59;;;;;;;165.10;91.78;;;;;;;;;;5073173;28;20013;-54
2020/12/24 04:19:25;;;;;;;172.93;98.07;;;;;;;;;;5073006;28;20063;-55
2020/12/24 04:21:51;;;;;;;193.38;105.50;;;;;;;;;;5073042;28;20032;-54
2020/12/24 04:24:17;;;;;;;216.10;118.63;;;;;;;;;;5072672;28;20127;-54
2020/12/24 04:26:43;;;;;;;229.85;126.30;;;;;;;;;;5072973;28;20020;-54
2020/12/24 04:29:09;;;;;;;222.18;122.18;;;;;;;;;;5072788;28;20553;-55
2020/12/24 04:31:40;;;;;;;243.23;134.02;;;;;;;;;;5072964;28;20066;-54
2020/12/24 04:34:06;;;;;;;255.98;141.68;;;;;;;;;;5072821;28;20058;-54
2020/12/24 04:36:32;;;;;;;262.10;144.85;;;;;;;;;;5072682;28;20032;-54
2020/12/24 04:38:58;;;;;;;217.77;119.95;;;;;;;;;;5072525;28;20020;-54
2020/12/24 04:41:24;;;;;;;206.82;112.72;;;;;;;;;;5072391;28;20388;-55
2020/12/24 04:43:50;;;;;;;207.82;118.70;;;;;;;;;;5072387;28;20064;-56
2020/12/24 04:46:17;;;;;;;231.07;124.50;;;;;;;;;;5072611;28;20016;-55
2020/12/24 04:48:44;;;;;;;209.15;112.68;;;;;;;;;;5072386;28;20067;-55
2020/12/24 04:51:10;;;;;;;195.45;101.75;;;;;;;;;;5072237;28;20133;-54
2020/12/24 04:53:37;;;;;;;178.23;92.30;;;;;;;;;;5072384;28;20024;-56
2020/12/24 04:56:04;;;;;;;151.77;81.90;;;;;;;;;;5072261;28;20021;-56
2020/12/24 04:58:30;;;;;;;182.43;94.97;;;;;;;;;;5072134;28;20024;-55
2020/12/24 05:00:56;;;;;;;225.80;113.68;;;;;;;;;;5072260;28;20379;-56
2020/12/24 05:03:22;;;;;;;231.05;114.03;;;;;;;;;;5072102;28;20468;-54
2020/12/24 05:05:48;;;;;;;252.18;127.22;;;;;;;;;;5072155;28;20060;-55
2020/12/24 05:08:14;;;;;;;245.73;120.80;;;;;;;;;;5072060;28;20477;-54
2020/12/24 05:10:40;;;;;;;233.07;119.75;;;;;;;;;;5071765;28;20433;-55
2020/12/24 05:13:17;;;;;;;219.10;109.63;;;;;;;;;;5072077;28;20025;-55
2020/12/24 05:15:43;;;;;;;213.98;109.18;;;;;;;;;;5070960;28;20031;-55
2020/12/24 05:18:15;;;;;;;286.17;139.23;;;;;;;;;;5059081;28;20051;-53
2020/12/24 05:20:41;;;;;;;;;;;;;;;;;;5066032;28;20380;-54
2020/12/24 05:23:25;;;;;;;203.38;106.25;;;;;;;;;;5051431;28;19932;-55
2020/12/24 05:25:51;;;;;;;185.00;104.78;;;;;;;;;;5029755;28;20057;-54
2020/12/24 05:28:27;;;;;;;190.10;109.90;;;;;;;;;;5032067;28;20068;-54
2020/12/24 05:30:54;;;;;;;253.82;136.30;;;;;;;;;;5031708;28;20105;-55
2020/12/24 05:33:26;;;;;;;229.82;128.73;;;;;;;;;;5031836;28;20026;-54
2020/12/24 05:35:53;;;;;;;226.63;128.30;;;;;;;;;;5031815;28;20026;-55
2020/12/24 05:38:32;;;;;;;236.73;131.70;;;;;;;;;;5031741;28;20053;-54
2020/12/24 05:40:58;;;;;;;204.90;119.97;;;;;;;;;;5031919;28;20465;-55
2020/12/24 05:43:24;;;;;;;227.77;128.10;;;;;;;;;;5031954;28;20497;-55
2020/12/24 05:46:02;;;;;;;234.23;128.75;;;;;;;;;;5031931;28;20349;-54
2020/12/24 05:48:32;;;;;;;256.65;146.55;;;;;;;;;;5031891;28;20385;-55
2020/12/24 05:50:58;;;;;;;219.20;126.57;;;;;;;;;;5031915;28;20036;-54
2020/12/24 05:53:25;;;;;;;224.27;121.90;;;;;;;;;;5032023;28;20036;-55
2020/12/24 05:55:51;;;;;;;221.63;122.05;;;;;;;;;;5031886;28;20137;-54
2020/12/24 05:58:17;;;;;;;209.10;115.63;;;;;;;;;;5031829;28;20026;-54
2020/12/24 06:00:45;;;;;;;209.18;115.25;;;;;;;;;;5031710;28;20037;-54
2020/12/24 06:03:11;;;;;;;221.60;121.20;;;;;;;;;;5031354;28;20037;-55
2020/12/24 06:05:56;;;;;;;210.20;115.88;;;;;;;;;;5031348;28;20027;-54
2020/12/24 06:08:30;;;;;;;254.13;124.75;;;;;;;;;;5029061;28;20037;-54
2020/12/24 06:11:08;;;;;;;243.77;122.22;;;;;;;;;;5031890;28;20097;-55
2020/12/24 06:13:34;;;;;;;232.63;120.03;;;;;;;;;;5029705;28;20386;-55
2020/12/24 06:16:03;;;;;;;234.23;119.93;;;;;;;;;;5022381;28;20030;-54
2020/12/24 06:18:32;;;;;;;271.70;138.30;;;;;;;;;;5031356;28;20136;-53
2020/12/24 06:21:02;;;;;;;262.92;130.63;;;;;;;;;;5035238;28;20100;-53
2020/12/24 06:23:32;;;;;;;265.90;134.00;;;;;;;;;;5038824;28;20485;-53
2020/12/24 06:26:01;;;;;;;293.77;146.75;;;;;;;;;;5075240;28;20063;-54
2020/12/24 06:28:28;;;;;;;277.25;134.98;;;;;;;;;;5075355;28;20077;-54
2020/12/24 06:30:58;;;;;;;292.75;142.20;;;;;;;;;;5074887;28;20059;-54
2020/12/24 06:33:27;;;;;;;314.75;150.55;;;;;;;;;;5070721;28;20025;-53
2020/12/24 06:35:53;;;;;;;458.73;166.13;;;;;;;;;;5070778;28;20029;-54
2020/12/24 06:38:39;;;;;;;340.90;148.13;;;;;;;;;;5075218;28;20023;-53
2020/12/24 06:41:21;;;;;;;315.25;138.95;;;;;;;;;;5074895;28;20039;-55
2020/12/24 06:43:47;;;;;;;292.23;138.23;;;;;;;;;;5074784;28;20060;-53
2020/12/24 06:46:13;;;;;;;291.70;138.60;;;;;;;;;;5074727;28;20392;-54
2020/12/24 06:48:39;;;;;;;301.13;139.55;;;;;;;;;;5074959;28;20105;-51
2020/12/24 06:51:05;;;;;;;317.13;142.77;;;;;;;;;;5074700;28;20039;-51
2020/12/24 06:53:35;;;;;;;488.60;161.60;;;;;;;;;;5073092;28;20082;-51
2020/12/24 06:56:10;;;;;;;398.92;166.43;;;;;;;;;;5054187;28;20025;-52
2020/12/24 06:58:51;;;;;;;316.92;143.10;;;;;;;;;;5058559;28;20445;-52
2020/12/24 07:01:19;;;;;;;320.13;149.97;;;;;;;;;;5071283;28;20111;-52
2020/12/24 07:03:46;;;;;;;361.20;169.48;;;;;;;;;;5060554;28;20029;-53
2020/12/24 07:06:12;;;;;;;397.10;166.45;;;;;;;;;;5074670;28;20350;-53
2020/12/24 07:08:41;;;;;;;373.33;184.60;;;;;;;;;;5074712;28;20027;-53
2020/12/24 07:11:07;;;;;;;365.15;158.00;;;;;;;;;;5054827;28;20021;-53
2020/12/24 07:13:37;;;;;;;339.42;149.32;;;;;;;;;;5066775;28;20025;-52
2020/12/24 07:16:07;;;;;;;271.83;140.10;;;;;;;;;;5074328;28;20099;-53
2020/12/24 07:18:40;;;;;;;233.75;125.60;;;;;;;;;;5074444;28;20031;-53
2020/12/24 07:21:07;;;;;;;252.40;127.32;;;;;;;;;;5074344;28;20112;-53
2020/12/24 07:23:34;;;;;;;275.90;118.22;;;;;;;;;;5074014;28;20040;-55
2020/12/24 07:26:05;;;;;;;279.10;129.07;;;;;;;;;;5074374;28;20489;-55
2020/12/24 07:28:31;;;;;;;316.67;133.95;;;;;;;;;;5065448;28;20025;-55
2020/12/24 07:31:01;;;;;;;364.33;166.65;;;;;;;;;;5067990;28;20024;-55
2020/12/24 07:33:28;;;;;;;294.85;154.50;;;;;;;;;;5074142;28;20070;-54
2020/12/24 07:35:54;;;;;;;256.38;133.82;;;;;;;;;;5074295;28;20033;-55
2020/12/24 07:38:21;;;;;;;260.15;137.55;;;;;;;;;;5074147;28;20092;-55
2020/12/24 07:40:47;;;;;;;341.00;141.32;;;;;;;;;;5073988;28;20029;-54
2020/12/24 07:43:14;;;;;;;305.25;139.68;;;;;;;;;;5073927;28;20028;-55
2020/12/24 07:45:41;;;;;;;282.13;135.45;;;;;;;;;;5073489;28;20030;-55
2020/12/24 07:48:25;;;;;;;320.00;138.98;;;;;;;;;;5071617;28;20037;-55
2020/12/24 07:50:52;;;;;;;262.83;127.72;;;;;;;;;;5073121;28;20093;-55
2020/12/24 07:53:18;;;;;;;299.60;138.68;;;;;;;;;;5073421;28;20032;-54
2020/12/24 07:55:44;;;;;;;304.08;164.75;;;;;;;;;;5073371;28;20031;-55
2020/12/24 07:58:11;;;;;;;235.80;127.63;;;;;;;;;;5073650;28;20023;-55
2020/12/24 08:00:40;;;;;;;239.80;118.28;;;;;;;;;;5073094;28;20025;-54
2020/12/24 08:03:07;;;;;;;217.10;113.13;;;;;;;;;;5073189;28;20028;-54
2020/12/24 08:05:33;;;;;;;258.45;120.97;;;;;;;;;;5073127;28;20017;-55
2020/12/24 08:07:59;;;;;;;268.88;135.55;;;;;;;;;;5073137;28;20035;-55
2020/12/24 08:10:26;;;;;;;238.65;125.57;;;;;;;;;;5073500;28;20063;-55
2020/12/24 08:12:52;;;;;;;278.23;143.02;;;;;;;;;;5072826;28;20101;-54
2020/12/24 08:15:19;;;;;;;345.10;188.48;;;;;;;;;;5072904;28;20052;-54
2020/12/24 08:17:49;;;;;;;293.08;153.52;;;;;;;;;;5072626;28;20067;-54
2020/12/24 08:20:17;;;;;;;310.98;149.25;;;;;;;;;;5073003;28;20453;-55
2020/12/24 08:22:47;;;;;;;283.83;148.18;;;;;;;;;;5072567;28;20042;-55
2020/12/24 08:25:15;;;;;;;265.52;137.35;;;;;;;;;;5072446;28;20165;-53
2020/12/24 08:27:41;;;;;;;368.13;190.60;;;;;;;;;;5072590;28;20066;-54
2020/12/24 08:30:08;;;;;;;380.52;172.65;;;;;;;;;;5072803;28;20094;-55
2020/12/24 08:32:37;;;;;;;485.20;235.68;;;;;;;;;;5072524;28;20020;-55
2020/12/24 08:35:10;;;;;;;358.73;169.00;;;;;;;;;;5072769;28;20103;-55
2020/12/24 08:37:36;;;;;;;410.23;190.05;;;;;;;;;;5072698;28;20095;-55
2020/12/24 08:40:17;;;;;;;365.45;176.45;;;;;;;;;;5072645;28;20020;-55
2020/12/24 08:42:47;;;;;;;364.40;176.45;;;;;;;;;;5072042;28;20044;-55
2020/12/24 08:45:13;;;;;;;356.15;178.55;;;;;;;;;;5072867;28;20028;-55
2020/12/24 08:47:39;;;;;;;355.73;172.77;;;;;;;;;;5072601;28;20036;-55
2020/12/24 08:50:06;;;;;;;354.00;179.15;;;;;;;;;;5072365;28;20377;-55
2020/12/24 08:52:37;;;;;;;402.90;194.02;;;;;;;;;;5072456;28;20032;-55
2020/12/24 08:55:03;;;;;;;333.80;168.93;;;;;;;;;;5072220;28;20548;-55
2020/12/24 08:57:29;;;;;;;347.20;178.45;;;;;;;;;;5072406;28;20115;-55
2020/12/24 08:59:56;;;;;;;368.83;197.90;;;;;;;;;;5072245;28;20035;-56
2020/12/24 09:02:25;;;;;;;332.75;189.02;;;;;;;;;;5072199;28;20040;-55
2020/12/24 09:04:55;;;;;;;338.40;187.80;;;;;;;;;;5072118;28;20504;-55
2020/12/24 09:07:31;;;;;;;353.48;197.43;;;;;;;;;;5072363;28;20507;-55
2020/12/24 09:10:20;;;;;;;376.52;207.18;;;;;;;;;;5072523;28;20480;-54
2020/12/24 09:12:47;;;;;;;389.48;213.52;;;;;;;;;;5050944;28;20116;-54
2020/12/24 09:15:14;;;;;;;382.45;210.90;;;;;;;;;;5071520;28;20452;-54
2020/12/24 09:17:50;;;;;;;375.52;214.50;;;;;;;;;;5071823;28;20024;-54
2020/12/24 09:20:21;;;;;;;371.23;210.05;;;;;;;;;;5071167;28;20033;-55
2020/12/24 09:22:53;;;;;;;357.90;205.52;;;;;;;;;;5053388;28;20480;-55
2020/12/24 09:25:19;;;;;;;;;;;;;;;;;;5071655;28;20070;-55
2020/12/24 09:27:45;;;;;;;354.50;206.70;;;;;;;;;;5071518;28;19908;-55
2020/12/24 09:30:11;;;;;;;355.83;213.23;;;;;;;;;;5071533;28;20051;-55
2020/12/24 09:32:37;;;;;;;393.90;239.65;;;;;;;;;;5071420;28;20070;-55
2020/12/24 09:35:04;;;;;;;365.73;220.77;;;;;;;;;;5071429;28;20028;-55
2020/12/24 09:37:30;;;;;;;328.67;198.85;;;;;;;;;;5071388;28;20091;-56
2020/12/24 09:39:56;;;;;;;332.70;201.63;;;;;;;;;;5070364;28;20021;-54
2020/12/24 09:42:22;;;;;;;327.45;197.35;;;;;;;;;;5071232;28;20599;-54
2020/12/24 09:44:48;;;;;;;332.60;198.48;;;;;;;;;;5071132;28;20534;-54
2020/12/24 09:47:14;;;;;;;359.60;221.57;;;;;;;;;;5058296;28;20028;-54
2020/12/24 09:49:40;;;;;;;352.85;222.35;;;;;;;;;;5070380;28;20103;-53
2020/12/24 09:52:06;;;;;;;391.95;244.95;;;;;;;;;;5071337;28;20056;-54
2020/12/24 09:54:32;;;;;;;418.70;262.52;;;;;;;;;;5072752;28;20400;-53
2020/12/24 09:56:58;;;;;;;442.00;285.40;;;;;;;;;;5075215;28;20481;-54
2020/12/24 09:59:24;;;;;;;432.17;278.60;;;;;;;;;;5075360;28;20032;-54
2020/12/24 10:01:54;;;;;;;397.80;251.80;;;;;;;;;;5074662;28;20439;-56
2020/12/24 10:04:20;;;;;;;362.75;231.02;;;;;;;;;;5075296;28;20448;-54
2020/12/24 10:06:46;;;;;;;365.15;225.75;;;;;;;;;;5061423;28;20021;-55
2020/12/24 10:09:13;;;;;;;335.17;210.85;;;;;;;;;;5074235;28;20111;-54
2020/12/24 10:11:40;;;;;;;350.40;218.63;;;;;;;;;;5075422;28;20039;-52
2020/12/24 10:14:06;;;;;;;346.80;218.07;;;;;;;;;;5075384;28;20345;-55
2020/12/24 10:16:32;;;;;;;371.23;233.73;;;;;;;;;;5064473;28;20508;-54
2020/12/24 10:18:58;;;;;;;375.73;239.93;;;;;;;;;;5073327;28;20020;-55
2020/12/24 10:21:26;;;;;;;352.95;224.43;;;;;;;;;;5074481;28;20115;-55
2020/12/24 10:23:52;;;;;;;398.35;260.98;;;;;;;;;;5074645;28;21758;-55
2020/12/24 10:26:18;;;;;;;353.00;222.73;;;;;;;;;;5075346;28;20025;-55
2020/12/24 10:28:44;;;;;;;327.02;208.93;;;;;;;;;;5075102;28;20384;-55
2020/12/24 10:31:10;;;;;;;313.88;202.68;;;;;;;;;;5074578;28;20117;-55
2020/12/24 10:33:36;;;;;;;307.92;191.63;;;;;;;;;;5075128;28;20013;-55
2020/12/24 10:36:02;;;;;;;304.13;184.40;;;;;;;;;;5074821;28;20107;-55
2020/12/24 10:38:28;;;;;;;264.83;161.25;;;;;;;;;;5074284;28;20036;-55
2020/12/24 10:40:54;;;;;;;258.55;158.57;;;;;;;;;;5074602;28;21498;-55
2020/12/24 10:43:20;;;;;;;250.80;154.90;;;;;;;;;;5074374;28;20068;-55
2020/12/24 10:45:47;;;;;;;250.27;153.57;;;;;;;;;;5074173;28;20074;-55
2020/12/24 10:48:13;;;;;;;244.00;150.80;;;;;;;;;;5074989;28;20024;-56
2020/12/24 10:50:39;;;;;;;240.65;153.10;;;;;;;;;;5065633;28;20021;-55
2020/12/24 10:53:05;;;;;;;230.50;142.88;;;;;;;;;;5067491;28;20028;-52
2020/12/24 10:55:31;;;;;;;223.27;140.75;;;;;;;;;;5063053;28;20037;-55
2020/12/24 10:57:57;;;;;;;228.00;140.20;;;;;;;;;;5061497;28;20017;-52
2020/12/24 11:00:23;;;;;;;221.57;139.13;;;;;;;;;;5055516;28;20098;-56
2020/12/24 11:02:49;;;;;;;233.18;140.85;;;;;;;;;;5056109;28;20469;-55
2020/12/24 11:05:15;;;;;;;233.63;147.52;;;;;;;;;;5054135;28;20071;-53
2020/12/24 11:07:41;;;;;;;227.57;141.85;;;;;;;;;;5070242;28;20032;-54
2020/12/24 11:10:07;;;;;;;222.82;138.85;;;;;;;;;;5073806;28;20028;-55
2020/12/24 11:12:33;;;;;;;216.05;139.82;;;;;;;;;;5074342;28;20033;-55
2020/12/24 11:14:59;;;;;;;221.93;139.20;;;;;;;;;;5073492;28;20074;-55
2020/12/24 11:17:25;;;;;;;210.43;135.80;;;;;;;;;;5074132;28;20098;-54
2020/12/24 11:19:51;;;;;;;209.18;130.88;;;;;;;;;;5073936;28;20017;-54
2020/12/24 11:22:17;;;;;;;217.25;139.00;;;;;;;;;;5074125;28;20062;-55
2020/12/24 11:24:44;;;;;;;252.82;157.48;;;;;;;;;;5059615;28;20123;-55
2020/12/24 11:27:10;;;;;;;236.73;151.35;;;;;;;;;;5074070;28;20033;-55
2020/12/24 11:29:36;;;;;;;249.10;156.00;;;;;;;;;;5073293;28;20031;-55
2020/12/24 11:32:02;;;;;;;234.35;144.63;;;;;;;;;;5057862;28;20123;-53
2020/12/24 11:34:31;;;;;;;231.25;143.38;;;;;;;;;;5054486;28;20025;-53
2020/12/24 11:36:58;;;;;;;234.48;146.70;;;;;;;;;;5056136;28;20828;-53
2020/12/24 11:39:24;;;;;;;278.85;170.40;;;;;;;;;;5052989;28;20036;-54
2020/12/24 11:41:50;;;;;;;225.90;144.07;;;;;;;;;;5053949;28;20033;-54
2020/12/24 11:44:16;;;;;;;238.48;149.25;;;;;;;;;;5052717;28;20032;-53
2020/12/24 11:46:42;;;;;;;229.77;142.23;;;;;;;;;;5064383;28;20017;-54
2020/12/24 11:49:08;;;;;;;229.15;150.10;;;;;;;;;;5061215;28;20020;-55
2020/12/24 11:51:34;;;;;;;229.68;144.95;;;;;;;;;;5072889;28;20074;-55
2020/12/24 11:54:00;;;;;;;221.35;141.85;;;;;;;;;;5067868;28;20504;-55
2020/12/24 11:56:26;;;;;;;209.18;140.50;;;;;;;;;;5065479;28;20032;-55
2020/12/24 11:58:53;;;;;;;219.63;140.50;;;;;;;;;;5071267;28;20031;-55
2020/12/24 12:01:19;;;;;;;213.88;135.85;;;;;;;;;;5062664;28;20025;-55
2020/12/24 12:03:46;;;;;;;229.48;143.13;;;;;;;;;;5073262;28;20040;-55
2020/12/24 12:06:12;;;;;;;221.80;138.75;;;;;;;;;;5073312;28;20021;-55
2020/12/24 12:08:38;;;;;;;214.52;136.32;;;;;;;;;;5073039;28;20028;-55
2020/12/24 12:11:04;;;;;;;214.80;135.27;;;;;;;;;;5072867;28;20357;-54
2020/12/24 12:13:31;;;;;;;193.25;127.90;;;;;;;;;;5073036;28;20121;-54
2020/12/24 12:15:57;;;;;;;208.50;132.27;;;;;;;;;;5072786;28;20017;-54
2020/12/24 12:18:23;;;;;;;194.70;123.85;;;;;;;;;;5072320;28;20017;-54
2020/12/24 12:20:50;;;;;;;181.35;116.97;;;;;;;;;;5071564;28;20044;-54
2020/12/24 12:23:16;;;;;;;181.82;118.22;;;;;;;;;;5071703;28;20119;-55
2020/12/24 12:25:42;;;;;;;174.02;109.53;;;;;;;;;;5072675;28;20029;-55
2020/12/24 12:28:08;;;;;;;191.10;120.32;;;;;;;;;;5072123;28;20033;-54
2020/12/24 12:30:35;;;;;;;175.75;112.95;;;;;;;;;;5072058;28;20052;-54
2020/12/24 12:33:01;;;;;;;209.60;138.48;;;;;;;;;;5058407;28;20028;-54
2020/12/24 12:35:27;;;;;;;257.65;166.05;;;;;;;;;;5072244;28;20026;-55
2020/12/24 12:37:53;;;;;;;196.80;125.55;;;;;;;;;;5072301;28;20158;-56
2020/12/24 12:40:19;;;;;;;198.57;130.25;;;;;;;;;;5072632;28;20025;-55
2020/12/24 12:42:45;;;;;;;187.25;123.43;;;;;;;;;;5072410;28;20041;-56
2020/12/24 12:45:11;;;;;;;163.98;109.05;;;;;;;;;;5071732;28;20021;-56
2020/12/24 12:47:40;;;;;;;190.45;124.07;;;;;;;;;;5071512;28;20058;-55
2020/12/24 12:50:07;;;;;;;164.70;108.13;;;;;;;;;;5071011;28;20017;-56
2020/12/24 12:52:33;;;;;;;176.68;117.32;;;;;;;;;;5072303;28;20133;-55
2020/12/24 12:54:59;;;;;;;238.25;146.73;;;;;;;;;;5071592;28;20024;-56
2020/12/24 12:57:25;;;;;;;189.63;120.93;;;;;;;;;;5066590;28;20029;-55
2020/12/24 12:59:51;;;;;;;171.55;110.57;;;;;;;;;;5062973;28;20032;-57
2020/12/24 13:02:17;;;;;;;212.27;132.27;;;;;;;;;;5072021;28;20135;-56
2020/12/24 13:04:43;;;;;;;239.32;143.27;;;;;;;;;;5071471;28;20108;-56
2020/12/24 13:07:09;;;;;;;257.88;150.65;;;;;;;;;;5072215;28;20028;-55
2020/12/24 13:09:35;;;;;;;229.35;138.07;;;;;;;;;;5072104;28;20099;-56
2020/12/24 13:12:02;;;;;;;201.05;125.40;;;;;;;;;;5072219;28;20032;-55
2020/12/24 13:14:28;;;;;;;217.45;133.95;;;;;;;;;;5071786;28;20154;-55
2020/12/24 13:16:54;;;;;;;202.50;126.53;;;;;;;;;;5071952;28;20046;-55
2020/12/24 13:19:21;;;;;;;195.77;121.32;;;;;;;;;;5071657;28;20055;-57
2020/12/24 13:21:48;;;;;;;194.23;116.80;;;;;;;;;;5071043;28;20037;-56
2020/12/24 13:24:14;;;;;;;176.70;113.35;;;;;;;;;;5071606;28;20045;-57
2020/12/24 13:26:41;;;;;;;179.20;111.82;;;;;;;;;;5072198;28;20041;-56
2020/12/24 13:29:07;;;;;;;150.98;94.90;;;;;;;;;;5070761;28;20460;-56
2020/12/24 13:31:33;;;;;;;152.82;94.25;;;;;;;;;;5072255;28;20024;-57
2020/12/24 13:33:59;;;;;;;233.77;137.57;;;;;;;;;;5071047;28;20487;-56
2020/12/24 13:36:26;;;;;;;181.20;115.38;;;;;;;;;;5072037;28;20376;-56
2020/12/24 13:38:52;;;;;;;177.95;111.75;;;;;;;;;;5072058;28;20039;-57
2020/12/24 13:41:18;;;;;;;162.90;108.75;;;;;;;;;;5071426;28;20545;-56
2020/12/24 13:43:44;;;;;;;161.02;101.10;;;;;;;;;;5071228;28;20094;-56
2020/12/24 13:46:11;;;;;;;178.73;110.45;;;;;;;;;;5071367;28;20028;-56
2020/12/24 13:48:37;;;;;;;169.57;106.13;;;;;;;;;;5071642;28;20113;-54
2020/12/24 13:51:04;;;;;;;155.07;103.38;;;;;;;;;;5053627;28;20392;-54
2020/12/24 13:53:30;;;;;;;152.18;95.47;;;;;;;;;;5056813;28;20060;-56
2020/12/24 13:55:56;;;;;;;147.70;93.70;;;;;;;;;;5045914;28;20025;-57